Time;durP1;ratioP1;P1;durP2;ratioP2;P2;SDS_P1;SDS_P2;PMS_P1;PMS_P2;Temp;Humidity;BMP_temperature;BMP_pressure;BME280_temperature;BME280_humidity;BME280_pressure;Samples;Min_cycle;Max_cycle;Signal;HPM_P1;HPM_P2
2023/11/03 00:03:15;;;;;;;12.43;11.43;;;;;;;9.52;100.00;151066.97;10333734;28;20073;-71
2023/11/03 00:08:17;;;;;;;11.70;10.75;;;;;;;9.57;100.00;151081.13;10333674;28;20070;-70
2023/11/03 00:13:19;;;;;;;11.43;10.52;;;;;;;9.21;100.00;150989.56;10333709;28;20034;-71
2023/11/03 00:18:21;;;;;;;11.73;10.77;;;;;;;9.25;100.00;150999.88;10333706;28;20598;-71
2023/11/03 00:23:24;;;;;;;12.52;11.43;;;;;;;9.36;100.00;151026.94;10333814;28;20507;-71
2023/11/03 00:28:27;;;;;;;12.02;11.07;;;;;;;9.05;100.00;150949.56;10332683;28;20410;-71
2023/11/03 00:33:30;;;;;;;13.30;12.20;;;;;;;9.09;100.00;150958.59;10332957;28;20046;-71
2023/11/03 00:38:32;;;;;;;11.73;10.68;;;;;;;9.17;100.00;150977.94;10332903;28;20051;-71
2023/11/03 00:43:34;;;;;;;12.27;10.50;;;;;;;9.04;100.00;150945.72;10333116;28;20509;-71
2023/11/03 00:48:36;;;;;;;11.13;10.13;;;;;;;8.97;100.00;150928.91;10332889;28;20092;-71
2023/11/03 00:53:38;;;;;;;13.63;10.07;;;;;;;9.17;100.00;150979.25;10331474;28;20053;-71
2023/11/03 00:58:40;;;;;;;11.52;10.52;;;;;;;9.31;100.00;151014.06;10332641;28;20046;-71
2023/11/03 01:03:41;;;;;;;12.27;11.07;;;;;;;9.39;100.00;151034.72;10338880;28;20125;-68
2023/11/03 01:08:43;;;;;;;11.85;10.90;;;;;;;9.10;100.00;150962.44;10340166;28;20046;-69
2023/11/03 01:13:45;;;;;;;11.55;10.27;;;;;;;8.93;100.00;150918.59;10338262;28;20081;-68
2023/11/03 01:18:47;;;;;;;12.75;11.73;;;;;;;8.94;100.00;150921.22;10337704;28;20077;-69
2023/11/03 01:23:49;;;;;;;12.52;11.38;;;;;;;8.90;100.00;150910.88;10339320;28;20039;-68
2023/11/03 01:28:52;;;;;;;11.88;10.88;;;;;;;9.05;100.00;150949.56;10339047;28;20514;-67
2023/11/03 01:33:53;;;;;;;10.07;9.18;;;;;;;9.26;100.00;151001.16;10337354;28;20046;-69
2023/11/03 01:38:55;;;;;;;11.02;10.05;;;;;;;8.97;100.00;150927.63;10338500;28;20046;-69
2023/11/03 01:44:01;;;;;;;9.77;8.90;;;;;;;8.95;100.00;150922.50;10338266;28;20089;-69
2023/11/03 01:49:05;;;;;;;8.03;7.37;;;;;;;9.12;100.00;150965.03;10338416;28;20043;-69
2023/11/03 01:54:07;;;;;;;10.45;9.52;;;;;;;8.90;100.00;150909.56;10336847;28;20042;-69
2023/11/03 01:59:10;;;;;;;10.93;9.93;;;;;;;9.30;100.00;151011.50;10336588;28;20129;-69
2023/11/03 02:04:11;;;;;;;9.77;8.95;;;;;;;8.97;100.00;150928.91;10336268;28;20514;-69
2023/11/03 02:09:13;;;;;;;10.98;10.07;;;;;;;9.07;100.00;150953.41;10336229;28;20057;-68
2023/11/03 02:14:15;;;;;;;10.60;9.70;;;;;;;8.94;100.00;150921.22;10335628;28;20070;-68
2023/11/03 02:19:17;;;;;;;10.02;9.13;;;;;;;8.93;100.00;150918.59;10337032;28;20046;-68
2023/11/03 02:24:20;;;;;;;9.25;8.52;;;;;;;9.09;100.00;150958.59;10337159;28;20049;-68
2023/11/03 02:29:22;;;;;;;9.45;8.65;;;;;;;8.83;100.00;150894.09;10336725;28;20058;-68
2023/11/03 02:34:23;;;;;;;9.50;8.70;;;;;;;8.86;100.00;150899.28;10336482;28;20564;-68
2023/11/03 02:39:25;;;;;;;8.80;8.00;;;;;;;8.68;100.00;150855.44;10336044;28;20076;-68
2023/11/03 02:44:27;;;;;;;8.07;7.35;;;;;;;8.71;100.00;150861.88;10335915;28;20049;-68
2023/11/03 02:49:30;;;;;;;8.45;7.65;;;;;;;8.93;100.00;150918.59;10334604;28;20501;-68
2023/11/03 02:54:32;;;;;;;7.38;6.75;;;;;;;8.73;100.00;150868.34;10335799;28;20042;-68
2023/11/03 02:59:33;;;;;;;7.47;6.88;;;;;;;8.71;100.00;150861.88;10335708;28;20560;-68
2023/11/03 03:04:35;;;;;;;7.63;6.93;;;;;;;8.98;100.00;150931.47;10335347;28;20125;-68
2023/11/03 03:09:37;;;;;;;8.05;7.28;;;;;;;8.78;100.00;150879.94;10335741;28;20042;-68
2023/11/03 03:14:39;;;;;;;6.90;6.30;;;;;;;8.53;100.00;150816.75;10335104;28;20039;-68
2023/11/03 03:19:41;;;;;;;7.85;7.15;;;;;;;8.42;100.00;150788.41;10334680;28;20050;-68
2023/11/03 03:24:42;;;;;;;7.88;7.18;;;;;;;8.60;100.00;150834.81;10334374;28;20494;-68
2023/11/03 03:29:44;;;;;;;7.78;7.07;;;;;;;8.52;100.00;150815.47;10333398;28;20514;-68
2023/11/03 03:34:46;;;;;;;6.93;6.32;;;;;;;8.38;100.00;150779.38;10334811;28;20046;-68
2023/11/03 03:39:48;;;;;;;7.47;6.78;;;;;;;8.38;100.00;150778.09;10334706;28;20060;-68
2023/11/03 03:44:50;;;;;;;7.30;6.60;;;;;;;9.02;100.00;150940.53;10334464;28;20038;-68
2023/11/03 03:49:51;;;;;;;7.60;6.70;;;;;;;8.71;100.00;150861.88;10334619;28;20404;-68
2023/11/03 03:54:53;;;;;;;7.43;6.75;;;;;;;8.57;100.00;150828.34;10333462;28;20042;-68
2023/11/03 03:59:55;;;;;;;6.28;5.78;;;;;;;8.49;100.00;150806.44;10333692;28;20477;-69
2023/11/03 04:04:57;;;;;;;6.28;5.72;;;;;;;8.27;100.00;150752.22;10333726;28;20446;-68
2023/11/03 04:09:58;;;;;;;5.82;5.28;;;;;;;8.26;100.00;150748.38;10334517;28;20414;-69
2023/11/03 04:15:01;;;;;;;6.78;6.18;;;;;;;8.58;100.00;150830.91;10332161;28;20049;-69
2023/11/03 04:20:04;;;;;;;5.95;5.40;;;;;;;8.39;100.00;150780.66;10333814;28;20070;-69
2023/11/03 04:25:06;;;;;;;7.43;6.18;;;;;;;8.50;100.00;150809.00;10331889;28;20512;-69
2023/11/03 04:30:08;;;;;;;7.43;6.82;;;;;;;8.40;100.00;150784.50;10334049;28;20560;-69
2023/11/03 04:35:10;;;;;;;7.15;6.45;;;;;;;8.35;100.00;150771.59;10336137;28;20117;-69
2023/11/03 04:40:12;;;;;;;6.63;6.03;;;;;;;8.13;100.00;150714.88;10341493;28;20049;-68
2023/11/03 04:45:15;;;;;;;5.85;5.32;;;;;;;8.00;100.00;150682.66;10341916;28;20054;-69
2023/11/03 04:50:17;;;;;;;5.43;4.93;;;;;;;7.94;100.00;150668.50;10341848;28;20105;-69
2023/11/03 04:55:20;;;;;;;5.97;5.45;;;;;;;8.06;100.00;150699.44;10341530;28;20117;-70
2023/11/03 05:00:21;;;;;;;6.38;5.78;;;;;;;8.14;100.00;150717.44;10341428;28;20055;-69
2023/11/03 05:05:23;;;;;;;5.78;5.28;;;;;;;8.28;100.00;150754.84;10340989;28;20126;-69
2023/11/03 05:10:25;;;;;;;5.45;4.95;;;;;;;7.98;100.00;150678.81;10340999;28;20046;-69
2023/11/03 05:15:27;;;;;;;5.55;4.97;;;;;;;7.96;100.00;150672.34;10341518;28;20046;-69
2023/11/03 05:20:28;;;;;;;5.28;4.78;;;;;;;8.02;100.00;150687.84;10340008;28;20089;-70
2023/11/03 05:25:30;;;;;;;6.00;5.45;;;;;;;7.88;100.00;150653.03;10339402;28;20117;-69
2023/11/03 05:30:32;;;;;;;6.03;5.00;;;;;;;7.80;100.00;150633.72;10340060;28;20468;-69
2023/11/03 05:35:34;;;;;;;7.43;6.68;;;;;;;8.00;100.00;150683.94;10339177;28;20129;-69
2023/11/03 05:40:36;;;;;;;6.30;5.70;;;;;;;8.26;100.00;150748.38;10339614;28;20030;-69
2023/11/03 05:45:37;;;;;;;6.35;5.00;;;;;;;8.15;100.00;150721.34;10338333;28;20560;-70
2023/11/03 05:50:39;;;;;;;7.03;4.05;;;;;;;8.11;100.00;150711.03;10338534;28;20117;-69
2023/11/03 05:55:42;;;;;;;3.15;2.85;;;;;;;8.10;100.00;150708.41;10337916;28;20053;-69
2023/11/03 06:00:45;;;;;;;2.47;2.08;;;;;;;7.86;100.00;150647.88;10337569;28;20390;-69
2023/11/03 06:05:47;;;;;;;3.15;2.40;;;;;;;7.78;100.00;150628.53;10337788;28;20046;-70
2023/11/03 06:10:50;;;;;;;3.63;3.13;;;;;;;7.73;100.00;150614.38;10339648;28;20451;-69
2023/11/03 06:15:52;;;;;;;9.57;8.68;;;;;;;7.76;100.00;150622.13;10335813;28;20042;-69
2023/11/03 06:20:53;;;;;;;8.02;7.32;;;;;;;8.11;100.00;150711.03;10337788;28;20505;-69
2023/11/03 06:25:55;;;;;;;3.10;2.80;;;;;;;8.10;100.00;150708.41;10336540;28;20076;-69
2023/11/03 06:30:58;;;;;;;3.60;2.38;;;;;;;7.95;100.00;150669.78;10336460;28;20532;-70
2023/11/03 06:36:00;;;;;;;2.85;2.38;;;;;;;7.76;100.00;150623.41;10336649;28;20042;-69
2023/11/03 06:41:03;;;;;;;3.70;2.05;;;;;;;7.88;100.00;150651.72;10334878;28;20042;-69
2023/11/03 06:46:09;;;;;;;2.22;2.03;;;;;;;7.84;100.00;150642.72;10336824;28;20125;-69
2023/11/03 06:51:12;;;;;;;1.88;1.67;;;;;;;7.81;100.00;150635.00;10336355;28;20068;-69
2023/11/03 06:56:13;;;;;;;3.13;1.75;;;;;;;8.01;100.00;150686.53;10336103;28;20070;-70
2023/11/03 07:01:15;;;;;;;3.67;2.33;;;;;;;8.09;100.00;150707.13;10334338;28;20113;-69
2023/11/03 07:06:18;;;;;;;2.58;1.70;;;;;;;8.25;100.00;150745.81;10336009;28;20054;-68
2023/11/03 07:11:19;;;;;;;2.88;1.42;;;;;;;8.04;100.00;150694.25;10335732;28;20046;-68
2023/11/03 07:16:21;;;;;;;1.83;1.52;;;;;;;7.83;100.00;150641.44;10336553;28;20379;-68
2023/11/03 07:21:24;;;;;;;2.38;1.25;;;;;;;7.88;100.00;150653.03;10335746;28;20065;-68
2023/11/03 07:26:28;;;;;;;2.72;1.58;;;;;;;8.04;100.00;150692.97;10335134;28;20490;-68
2023/11/03 07:31:30;;;;;;;4.55;1.73;;;;;;;8.12;100.00;150712.31;10335515;28;20121;-68
2023/11/03 07:36:33;;;;;;;3.50;2.10;;;;;;;8.24;100.00;150743.25;10333504;28;20046;-68
2023/11/03 07:41:37;;;;;;;4.38;1.30;;;;;;;8.23;100.00;150741.91;10334571;28;20046;-68
2023/11/03 07:46:41;;;;;;;2.28;1.38;;;;;;;8.16;100.00;150722.63;10334444;28;20478;-69
2023/11/03 07:51:47;;;;;;;2.13;1.50;;;;;;;8.16;100.00;150722.63;10335133;28;20039;-69
2023/11/03 07:56:48;;;;;;;3.28;1.55;;;;;;;8.61;100.00;150837.38;10335225;28;20046;-68
2023/11/03 08:01:51;;;;;;;3.42;1.48;;;;;;;8.48;100.00;150803.84;10334668;28;20042;-69
2023/11/03 08:06:55;;;;;;;2.00;1.50;;;;;;;8.74;100.00;150870.91;10333351;28;20085;-68
2023/11/03 08:11:57;;;;;;;4.50;1.77;;;;;;;8.59;100.00;150833.53;10333199;28;20400;-70
2023/11/03 08:16:59;;;;;;;2.83;1.20;;;;;;;8.64;100.00;150845.13;10334262;28;20054;-68
2023/11/03 08:22:00;;;;;;;2.30;1.35;;;;;;;8.83;100.00;150892.81;10334120;28;20038;-69
2023/11/03 08:27:03;;;;;;;3.70;2.00;;;;;;;9.01;100.00;150939.25;10332266;28;20042;-68
2023/11/03 08:32:07;;;;;;;5.53;1.40;;;;;;;9.23;100.00;150993.41;10332812;28;20062;-69
2023/11/03 08:37:11;;;;;;;4.05;1.45;;;;;;;9.52;100.00;151068.25;10334639;28;20066;-69
2023/11/03 08:42:13;;;;;;;2.70;1.60;;;;;;;9.56;100.00;151077.25;10334544;28;20035;-69
2023/11/03 08:47:15;;;;;;;1.92;1.13;;;;;;;9.61;100.00;151090.19;10333834;28;20046;-69
2023/11/03 08:52:18;;;;;;;1.83;1.17;;;;;;;9.64;100.00;151097.88;10333537;28;20042;-69
2023/11/03 08:57:21;;;;;;;3.70;1.40;;;;;;;9.63;100.00;151094.03;10333832;28;20089;-69
2023/11/03 09:02:23;;;;;;;2.25;1.10;;;;;;;9.59;100.00;151085.00;10332960;28;20038;-68
2023/11/03 09:07:25;;;;;;;2.17;0.90;;;;;;;9.63;100.00;151094.03;10333078;28;20073;-68
2023/11/03 09:12:27;;;;;;;2.20;0.90;;;;;;;9.70;100.00;151113.41;10332736;28;20097;-68
2023/11/03 09:17:31;;;;;;;4.72;1.27;;;;;;;9.74;100.00;151122.41;10332251;28;20054;-69
2023/11/03 09:22:33;;;;;;;4.18;1.10;;;;;;;9.79;100.00;151135.34;10335158;28;20046;-68
2023/11/03 09:27:38;;;;;;;3.15;1.10;;;;;;;9.76;100.00;151127.59;10340912;28;20050;-68
2023/11/03 09:32:43;;;;;;;1.92;0.70;;;;;;;9.75;100.00;151126.31;10340245;28;20066;-69
2023/11/03 09:37:45;;;;;;;2.65;1.58;;;;;;;9.89;95.54;151161.13;10339140;28;20142;-69
2023/11/03 09:42:47;;;;;;;1.55;0.50;;;;;;;9.79;93.06;151135.34;10339056;28;20048;-69
2023/11/03 09:47:51;;;;;;;2.47;0.70;;;;;;;9.71;95.13;151114.69;10339044;28;20046;-69
2023/11/03 09:52:54;;;;;;;1.08;0.60;;;;;;;9.71;97.52;151114.69;10342282;28;20038;-69
2023/11/03 09:58:01;;;;;;;0.80;0.50;;;;;;;9.71;95.50;151114.69;10379102;28;20100;-68
2023/11/03 10:03:04;;;;;;;2.58;0.73;;;;;;;9.69;94.34;151110.78;10378945;28;20037;-68
2023/11/03 10:08:08;;;;;;;2.00;1.30;;;;;;;9.59;96.41;151085.00;10378741;28;20068;-68
2023/11/03 10:13:11;;;;;;;2.60;1.05;;;;;;;9.54;93.29;151073.38;10378587;28;20512;-68
2023/11/03 10:18:13;;;;;;;1.20;0.65;;;;;;;9.51;93.76;151064.34;10378433;28;20042;-68
2023/11/03 10:23:16;;;;;;;0.95;0.40;;;;;;;9.55;92.50;151075.94;10378093;28;20076;-68
2023/11/03 10:28:19;;;;;;;1.92;1.00;;;;;;;9.60;93.96;151088.84;10350456;28;20457;-69
2023/11/03 10:33:24;;;;;;;2.95;0.98;;;;;;;9.55;96.33;151074.66;10336506;28;20053;-68
2023/11/03 10:38:26;;;;;;;2.20;0.77;;;;;;;9.68;91.99;151108.22;10339067;28;20046;-68
2023/11/03 10:43:29;;;;;;;1.88;0.70;;;;;;;9.56;92.60;151077.25;10335938;28;20042;-68
2023/11/03 10:48:41;;;;;;;3.75;1.02;;;;;;;9.75;87.58;151125.00;10335289;28;20042;-68
2023/11/03 10:53:43;;;;;;;1.83;0.50;;;;;;;9.74;86.89;151123.72;10336187;28;20133;-68
2023/11/03 10:58:45;;;;;;;1.65;0.57;;;;;;;9.70;88.39;151113.41;10335918;28;20524;-68
2023/11/03 11:04:02;;;;;;;2.45;1.33;;;;;;;9.69;85.42;151110.78;10335501;28;20041;-68
2023/11/03 11:09:20;;;;;;;6.07;2.10;;;;;;;9.60;87.36;151088.84;10336943;28;20104;-68
2023/11/03 11:14:24;;;;;;;2.65;0.40;;;;;;;9.67;83.01;151105.66;10336681;28;20117;-71
2023/11/03 11:19:50;;;;;;;1.58;0.60;;;;;;;9.68;81.69;151106.94;10337541;28;20050;-70
2023/11/03 11:24:56;;;;;;;3.47;0.77;;;;;;;9.51;87.21;151064.34;10337540;28;20038;-71
2023/11/03 11:30:12;;;;;;;0.70;0.37;;;;;;;9.65;85.69;151099.19;10338440;28;20069;-70
2023/11/03 11:35:14;;;;;;;1.05;0.50;;;;;;;9.56;83.17;151078.56;10335941;28;20061;-70
2023/11/03 11:40:18;;;;;;;1.35;0.35;;;;;;;9.76;83.12;151127.59;10336063;28;20445;-70
2023/11/03 11:45:19;;;;;;;2.65;0.50;;;;;;;9.89;82.29;151159.84;10332617;28;20045;-70
2023/11/03 11:50:21;;;;;;;2.55;0.65;;;;;;;9.86;84.16;151154.66;10335391;28;20049;-70
2023/11/03 11:55:23;;;;;;;0.90;0.40;;;;;;;9.99;79.32;151185.66;10336116;28;20074;-70
2023/11/03 12:00:25;;;;;;;0.93;0.40;;;;;;;10.08;80.09;151210.16;10334177;28;20077;-70
2023/11/03 12:05:29;;;;;;;1.23;0.50;;;;;;;10.28;77.40;151259.28;10335111;28;20042;-70
2023/11/03 12:10:33;;;;;;;2.00;0.60;;;;;;;10.24;75.07;151248.91;10334943;28;20383;-70
2023/11/03 12:15:36;;;;;;;1.20;0.50;;;;;;;10.26;79.23;151255.38;10335325;28;20522;-71
2023/11/03 12:20:38;;;;;;;0.85;0.40;;;;;;;10.40;77.45;151290.22;10335072;28;20405;-70
2023/11/03 12:25:39;;;;;;;3.95;1.58;;;;;;;10.37;76.23;151281.25;10335510;28;20513;-70
2023/11/03 12:30:51;;;;;;;1.60;0.60;;;;;;;10.39;75.24;151286.38;10335576;28;20498;-71
2023/11/03 12:35:54;;;;;;;5.80;3.08;;;;;;;10.28;77.30;151259.28;10335665;28;20093;-71
2023/11/03 12:41:16;;;;;;;7.13;5.28;;;;;;;10.14;79.04;151224.41;10334132;28;20125;-70
2023/11/03 12:46:17;;;;;;;1.90;1.48;;;;;;;10.34;76.38;151276.06;10334678;28;20097;-70
2023/11/03 12:51:30;;;;;;;1.58;0.63;;;;;;;10.40;76.94;151290.22;10335626;28;20417;-70
2023/11/03 12:56:50;;;;;;;1.08;0.60;;;;;;;10.37;77.20;151282.53;10336234;28;20046;-70
2023/11/03 13:01:56;;;;;;;1.38;0.60;;;;;;;10.20;78.17;151238.56;10342436;28;20478;-70
2023/11/03 13:06:57;;;;;;;0.73;0.40;;;;;;;10.07;76.71;151206.31;10340691;28;20078;-66
2023/11/03 13:12:02;;;;;;;1.13;0.50;;;;;;;10.27;74.99;151258.00;10341823;28;20125;-66
2023/11/03 13:17:04;;;;;;;0.98;0.57;;;;;;;10.20;76.00;151238.56;10341068;28;20108;-65
2023/11/03 13:22:06;;;;;;;5.90;0.80;;;;;;;10.20;75.22;151239.88;10340700;28;20097;-66
2023/11/03 13:27:08;;;;;;;2.67;0.32;;;;;;;10.09;75.38;151212.78;10340407;28;20046;-66
2023/11/03 13:32:10;;;;;;;1.15;0.30;;;;;;;10.02;76.54;151193.41;10341486;28;20380;-72
2023/11/03 13:37:13;;;;;;;0.60;0.40;;;;;;;10.04;75.73;151198.53;10339689;28;20144;-72
2023/11/03 13:42:15;;;;;;;1.17;0.38;;;;;;;9.72;79.20;151117.25;10340444;28;20038;-72
2023/11/03 13:47:17;;;;;;;1.45;0.38;;;;;;;9.58;80.35;151083.72;10340334;28;20042;-71
2023/11/03 13:52:19;;;;;;;2.05;0.40;;;;;;;9.71;79.99;151114.69;10340262;28;20035;-73
2023/11/03 13:57:22;;;;;;;0.70;0.40;;;;;;;9.54;80.48;151072.09;10339990;28;20050;-71
2023/11/03 14:02:24;;;;;;;1.30;0.47;;;;;;;9.77;78.83;151130.16;10339730;28;20030;-72
2023/11/03 14:07:27;;;;;;;2.28;0.75;;;;;;;9.71;79.95;151114.69;10338939;28;20124;-71
2023/11/03 14:12:28;;;;;;;1.33;0.40;;;;;;;9.72;79.59;151117.25;10339845;28;20046;-72
2023/11/03 14:17:30;;;;;;;1.15;0.43;;;;;;;9.48;82.10;151057.94;10339185;28;20121;-72
2023/11/03 14:22:32;;;;;;;0.50;0.38;;;;;;;9.52;82.24;151066.97;10338419;28;20053;-72
2023/11/03 14:27:34;;;;;;;1.27;0.65;;;;;;;9.48;82.80;151057.94;10337471;28;20462;-72
2023/11/03 14:32:37;;;;;;;1.65;0.68;;;;;;;9.43;84.65;151043.69;10337252;28;20101;-72
2023/11/03 14:37:41;;;;;;;5.93;3.30;;;;;;;9.55;83.07;151075.94;10338966;28;20047;-69
2023/11/03 14:42:45;;;;;;;2.47;1.13;;;;;;;9.40;85.20;151037.28;10337406;28;20038;-69
2023/11/03 14:47:47;;;;;;;6.20;1.42;;;;;;;9.48;83.01;151057.94;10336899;28;20050;-69
2023/11/03 14:52:49;;;;;;;1.58;1.05;;;;;;;9.34;85.21;151023.09;10336581;28;20441;-69
2023/11/03 14:57:51;;;;;;;1.58;0.60;;;;;;;9.24;87.87;150997.25;10337498;28;20406;-70
2023/11/03 15:02:55;;;;;;;4.28;1.05;;;;;;;9.10;90.03;150962.44;10339078;28;20046;-70
2023/11/03 15:07:57;;;;;;;1.08;0.63;;;;;;;9.23;89.06;150994.69;10337454;28;20453;-70
2023/11/03 15:12:59;;;;;;;1.20;0.60;;;;;;;9.06;89.18;150952.13;10320673;28;20418;-70
2023/11/03 15:18:01;;;;;;;1.15;0.55;;;;;;;8.91;91.31;150912.19;10336465;28;20050;-70
2023/11/03 15:23:03;;;;;;;3.20;0.85;;;;;;;8.86;92.42;150900.56;10335917;28;20097;-70
2023/11/03 15:28:05;;;;;;;1.35;0.75;;;;;;;8.81;93.33;150887.69;10334846;28;20053;-68
2023/11/03 15:33:10;;;;;;;1.08;0.70;;;;;;;8.80;94.00;150885.06;10336178;28;20065;-69
2023/11/03 15:38:13;;;;;;;1.75;0.82;;;;;;;8.82;94.42;150890.25;10335531;28;20050;-69
2023/11/03 15:43:15;;;;;;;4.03;1.20;;;;;;;8.89;92.53;150908.28;10334940;28;20121;-69
2023/11/03 15:48:17;;;;;;;3.10;1.33;;;;;;;8.79;94.20;150883.78;10334295;28;20478;-69
2023/11/03 15:53:21;;;;;;;10.23;6.90;;;;;;;8.75;94.22;150873.47;10334222;28;20081;-69
2023/11/03 15:58:22;;;;;;;8.68;5.22;;;;;;;8.92;92.58;150916.03;10334348;28;20074;-69
2023/11/03 16:03:24;;;;;;;154.20;64.93;;;;;;;9.14;89.02;150970.19;10334521;28;20042;-69
2023/11/03 16:08:27;;;;;;;15.88;10.55;;;;;;;9.10;89.42;150961.16;10333594;28;20049;-69
2023/11/03 16:13:29;;;;;;;6.82;4.03;;;;;;;8.97;92.22;150927.63;10333606;28;20053;-69
2023/11/03 16:18:32;;;;;;;4.35;1.48;;;;;;;8.73;93.10;150867.06;10334210;28;20086;-69
2023/11/03 16:23:35;;;;;;;2.55;1.02;;;;;;;8.96;90.31;150925.06;10333420;28;20104;-69
2023/11/03 16:28:37;;;;;;;1.85;0.70;;;;;;;9.03;88.89;150944.44;10333203;28;20502;-69
2023/11/03 16:33:39;;;;;;;4.13;0.70;;;;;;;9.09;87.98;150959.88;10338663;28;20109;-69
2023/11/03 16:38:41;;;;;;;2.20;1.10;;;;;;;8.99;88.27;150932.81;10341302;28;20050;-69
2023/11/03 16:43:44;;;;;;;1.55;0.70;;;;;;;9.05;86.67;150948.28;10341902;28;20089;-69
2023/11/03 16:48:45;;;;;;;0.80;0.50;;;;;;;9.01;86.25;150939.25;10341223;28;20133;-69
2023/11/03 16:53:47;;;;;;;1.40;0.73;;;;;;;9.25;83.32;150999.88;10340364;28;20042;-69
2023/11/03 16:58:49;;;;;;;1.95;0.88;;;;;;;9.25;83.60;150998.56;10340223;28;20444;-69
2023/11/03 17:03:51;;;;;;;0.85;0.75;;;;;;;9.06;84.94;150952.13;10339747;28;20524;-69
2023/11/03 17:08:53;;;;;;;1.88;0.80;;;;;;;9.22;83.79;150990.84;10339937;28;20049;-69
2023/11/03 17:13:55;;;;;;;1.38;0.68;;;;;;;9.05;85.00;150948.28;10338437;28;20463;-69
2023/11/03 17:18:57;;;;;;;1.00;0.60;;;;;;;9.07;83.34;150954.75;10342381;28;20057;-70
2023/11/03 17:24:00;;;;;;;0.85;0.60;;;;;;;9.05;83.86;150949.56;10341490;28;20046;-70
2023/11/03 17:29:05;;;;;;;2.00;0.80;;;;;;;9.20;82.90;150986.94;10341090;28;20050;-70
2023/11/03 17:34:07;;;;;;;3.47;1.20;;;;;;;9.27;82.14;151005.03;10342159;28;20057;-71
2023/11/03 17:39:09;;;;;;;1.63;1.20;;;;;;;9.18;83.18;150981.81;10342046;28;20042;-70
2023/11/03 17:44:13;;;;;;;0.98;0.60;;;;;;;9.11;84.32;150963.72;10341533;28;20053;-72
2023/11/03 17:49:18;;;;;;;1.95;0.52;;;;;;;9.24;82.90;150995.97;10340980;28;20045;-70
2023/11/03 17:54:24;;;;;;;3.63;0.88;;;;;;;9.21;81.90;150989.56;10341024;28;20069;-70
2023/11/03 17:59:26;;;;;;;3.22;1.23;;;;;;;9.24;81.75;150997.25;10339877;28;20054;-70
2023/11/03 18:04:27;;;;;;;4.47;0.70;;;;;;;9.18;82.82;150981.81;10340615;28;20568;-70
2023/11/03 18:09:29;;;;;;;2.00;0.80;;;;;;;9.19;82.36;150984.38;10340284;28;20053;-70
2023/11/03 18:14:31;;;;;;;1.48;0.57;;;;;;;9.16;82.35;150976.63;10340820;28;20039;-71
2023/11/03 18:19:33;;;;;;;1.90;0.70;;;;;;;9.23;81.84;150993.41;10342255;28;20050;-70
2023/11/03 18:24:35;;;;;;;3.72;0.90;;;;;;;9.11;83.25;150963.72;10341621;28;20079;-72
2023/11/03 18:29:37;;;;;;;2.10;0.70;;;;;;;9.26;81.13;151002.44;10341456;28;20050;-70
2023/11/03 18:34:39;;;;;;;2.08;0.90;;;;;;;9.00;84.08;150936.66;10340594;28;20463;-70
2023/11/03 18:39:43;;;;;;;2.17;0.70;;;;;;;9.08;83.41;150957.31;10340367;28;20046;-71
2023/11/03 18:44:45;;;;;;;2.75;0.82;;;;;;;9.23;82.30;150993.41;10340628;28;20041;-71
2023/11/03 18:49:48;;;;;;;1.58;0.68;;;;;;;9.20;81.88;150985.66;10339317;28;20074;-70
2023/11/03 18:55:10;;;;;;;1.77;0.82;;;;;;;9.22;81.82;150990.84;10339444;28;20038;-71
2023/11/03 19:00:33;;;;;;;2.92;1.60;;;;;;;9.22;82.97;150990.84;10340329;28;20046;-70
2023/11/03 19:05:38;;;;;;;2.63;0.90;;;;;;;9.26;81.49;151001.16;10340615;28;20112;-70
2023/11/03 19:11:00;;;;;;;2.97;1.10;;;;;;;9.35;80.81;151025.66;10341073;28;20046;-71
2023/11/03 19:16:02;;;;;;;1.60;0.85;;;;;;;9.26;83.18;151002.44;10340459;28;20066;-72
2023/11/03 19:21:05;;;;;;;2.00;0.70;;;;;;;9.24;82.59;150997.25;10338111;28;20061;-71
2023/11/03 19:26:08;;;;;;;0.95;0.60;;;;;;;9.10;83.49;150962.44;10340195;28;20406;-72
2023/11/03 19:31:15;;;;;;;2.10;0.70;;;;;;;9.07;83.65;150953.41;10338892;28;20080;-73
2023/11/03 19:36:18;;;;;;;2.20;0.93;;;;;;;9.24;81.19;150997.25;10338116;28;20156;-71
2023/11/03 19:41:22;;;;;;;1.20;0.70;;;;;;;9.31;80.47;151015.34;10341139;28;20043;-71
2023/11/03 19:46:24;;;;;;;5.63;0.75;;;;;;;9.26;81.93;151002.44;10338024;28;20042;-71
2023/11/03 19:51:26;;;;;;;3.15;0.65;;;;;;;9.24;81.77;150997.25;10337948;28;20050;-71
2023/11/03 19:56:28;;;;;;;2.20;0.60;;;;;;;9.30;80.53;151011.50;10338372;28;20117;-72
2023/11/03 20:01:30;;;;;;;2.03;0.90;;;;;;;9.21;81.65;150989.56;10338946;28;20121;-74
2023/11/03 20:06:32;;;;;;;3.15;0.98;;;;;;;9.21;82.14;150989.56;10338462;28;20461;-71
2023/11/03 20:11:33;;;;;;;3.70;0.57;;;;;;;9.18;82.49;150980.53;10338300;28;20042;-72
2023/11/03 20:16:35;;;;;;;2.25;0.60;;;;;;;9.28;80.82;151006.31;10338316;28;20506;-70
2023/11/03 20:21:37;;;;;;;2.30;0.75;;;;;;;9.26;80.96;151001.16;10336500;28;20557;-70
2023/11/03 20:26:39;;;;;;;2.28;1.00;;;;;;;9.23;82.41;150993.41;10335895;28;20486;-70
2023/11/03 20:31:43;;;;;;;2.10;0.70;;;;;;;9.26;80.86;151002.44;10335157;28;20047;-70
2023/11/03 20:36:46;;;;;;;1.90;0.75;;;;;;;9.19;81.24;150983.09;10335433;28;20510;-71
2023/11/03 20:41:48;;;;;;;3.13;0.90;;;;;;;9.13;82.49;150967.63;10336312;28;20042;-71
2023/11/03 20:46:50;;;;;;;2.03;0.75;;;;;;;9.20;81.93;150986.94;10318290;28;20098;-71
2023/11/03 20:51:51;;;;;;;2.28;0.80;;;;;;;9.00;83.68;150936.66;10335808;28;20047;-71
2023/11/03 20:56:53;;;;;;;1.95;0.50;;;;;;;9.12;81.38;150965.03;10335582;28;20062;-69
2023/11/03 21:01:56;;;;;;;2.38;0.65;;;;;;;9.13;81.00;150968.91;10335629;28;20073;-70
2023/11/03 21:06:58;;;;;;;2.97;0.63;;;;;;;9.18;80.13;150980.53;10334861;28;20641;-71
2023/11/03 21:12:00;;;;;;;2.00;0.80;;;;;;;9.05;81.92;150949.56;10335263;28;20387;-70
2023/11/03 21:17:02;;;;;;;3.15;1.33;;;;;;;8.97;81.91;150928.91;10335568;28;20129;-71
2023/11/03 21:22:07;;;;;;;1.30;0.40;;;;;;;9.07;81.23;150954.75;10341952;28;20065;-71
2023/11/03 21:27:09;;;;;;;2.53;0.57;;;;;;;9.24;79.45;150995.97;10341839;28;20097;-70
2023/11/03 21:32:11;;;;;;;1.75;0.60;;;;;;;9.13;79.73;150967.63;10342104;28;20122;-70
2023/11/03 21:37:13;;;;;;;2.05;0.60;;;;;;;9.20;78.99;150985.66;10342539;28;20069;-70
2023/11/03 21:42:15;;;;;;;1.00;0.70;;;;;;;9.24;79.02;150995.97;10340038;28;20133;-71
2023/11/03 21:47:17;;;;;;;1.15;0.50;;;;;;;9.23;77.79;150993.41;10340525;28;20070;-71
2023/11/03 21:52:19;;;;;;;0.80;0.40;;;;;;;9.15;78.58;150972.78;10341168;28;20129;-70
2023/11/03 21:57:20;;;;;;;1.77;0.50;;;;;;;9.24;77.53;150995.97;10340888;28;20046;-71
2023/11/03 22:02:22;;;;;;;3.03;0.50;;;;;;;9.26;77.71;151001.16;10340755;28;20049;-70
2023/11/03 22:07:24;;;;;;;3.55;1.17;;;;;;;9.18;78.48;150980.53;10340214;28;20045;-70
2023/11/03 22:12:25;;;;;;;2.58;0.50;;;;;;;9.28;77.38;151007.59;10340331;28;20125;-71
2023/11/03 22:17:27;;;;;;;1.70;0.60;;;;;;;9.30;77.33;151011.50;10339371;28;20038;-70
2023/11/03 22:22:29;;;;;;;1.38;0.60;;;;;;;9.18;78.49;150981.81;10336654;28;20533;-69
2023/11/03 22:27:31;;;;;;;1.45;0.43;;;;;;;9.33;77.87;151019.19;10338618;28;20073;-70
2023/11/03 22:32:33;;;;;;;2.10;0.70;;;;;;;9.34;76.96;151021.78;10337698;28;20112;-70
2023/11/03 22:37:37;;;;;;;1.80;0.60;;;;;;;9.30;77.53;151012.78;10337843;28;20061;-70
2023/11/03 22:42:39;;;;;;;1.42;0.40;;;;;;;9.22;78.47;150990.84;10338148;28;20533;-70
2023/11/03 22:47:41;;;;;;;0.55;0.43;;;;;;;9.19;78.43;150983.09;10338012;28;20443;-70
2023/11/03 22:52:43;;;;;;;1.98;0.68;;;;;;;9.23;77.42;150994.69;10338426;28;20116;-71
2023/11/03 22:57:45;;;;;;;3.67;0.90;;;;;;;9.21;77.57;150988.22;10337509;28;20046;-70
2023/11/03 23:02:47;;;;;;;2.65;0.70;;;;;;;9.20;77.50;150986.94;10336615;28;20046;-70
2023/11/03 23:07:49;;;;;;;2.67;0.70;;;;;;;9.16;78.44;150976.63;10336476;28;20073;-70
2023/11/03 23:12:50;;;;;;;2.50;0.70;;;;;;;9.09;79.29;150959.88;10336957;28;20066;-70
2023/11/03 23:17:52;;;;;;;1.05;0.70;;;;;;;9.10;78.83;150962.44;10335965;28;20053;-70